Time;durP1;ratioP1;P1;durP2;ratioP2;P2;SDS_P1;SDS_P2;PMS_P1;PMS_P2;Temp;Humidity;BMP_temperature;BMP_pressure;BME280_temperature;BME280_humidity;BME280_pressure;Samples;Min_cycle;Max_cycle;Signal;HPM_P1;HPM_P2
2021/12/31 00:00:30;;;;;;;6.20;1.77;;;16.20;99.90;;;;;;4981811;28;20292;-22
2021/12/31 00:02:57;;;;;;;6.23;2.20;;;16.20;99.90;;;;;;4972309;28;20207;-22
2021/12/31 00:05:27;;;;;;;4.00;1.70;;;16.20;99.90;;;;;;4977140;28;20198;-22
2021/12/31 00:07:54;;;;;;;4.07;1.70;;;16.20;99.90;;;;;;4988011;28;20217;-22
2021/12/31 00:10:24;;;;;;;3.77;1.70;;;16.20;99.90;;;;;;4982731;28;20202;-22
2021/12/31 00:12:57;;;;;;;4.17;1.87;;;16.20;99.90;;;;;;4988953;28;20229;-22
2021/12/31 00:15:26;;;;;;;5.53;1.87;;;16.20;99.90;;;;;;4973444;28;20657;-22
2021/12/31 00:17:54;;;;;;;6.43;2.07;;;16.20;99.90;;;;;;4986687;28;20218;-22
2021/12/31 00:20:25;;;;;;;5.30;1.90;;;16.20;99.90;;;;;;4972684;28;20227;-22
2021/12/31 00:23:02;;;;;;;5.63;2.13;;;16.20;99.90;;;;;;4988556;28;20206;-22
2021/12/31 00:25:37;;;;;;;5.40;1.77;;;16.20;99.90;;;;;;4991723;28;20585;-22
2021/12/31 00:28:05;;;;;;;8.93;2.30;;;16.20;99.90;;;;;;4984577;28;20715;-22
2021/12/31 00:30:35;;;;;;;3.90;1.63;;;16.20;99.90;;;;;;4987884;28;20237;-22
2021/12/31 00:33:04;;;;;;;7.33;1.90;;;16.10;99.90;;;;;;4993949;28;20210;-22
2021/12/31 00:35:32;;;;;;;5.00;1.90;;;16.10;99.90;;;;;;4971926;28;20218;-22
2021/12/31 00:38:00;;;;;;;3.90;1.50;;;16.10;99.90;;;;;;4972004;28;20310;-22
2021/12/31 00:40:27;;;;;;;5.17;1.70;;;16.10;99.90;;;;;;4969890;28;20227;-22
2021/12/31 00:42:55;;;;;;;2.87;1.57;;;16.10;99.90;;;;;;4976950;28;20213;-22
2021/12/31 00:45:24;;;;;;;4.43;1.50;;;16.10;99.90;;;;;;4986353;28;20203;-22
2021/12/31 00:47:52;;;;;;;6.83;1.90;;;16.10;99.90;;;;;;4990617;28;20349;-22
2021/12/31 00:50:21;;;;;;;6.90;1.83;;;16.10;99.90;;;;;;4981458;28;20205;-22
2021/12/31 00:52:48;;;;;;;4.87;1.60;;;16.10;99.90;;;;;;4986966;28;20252;-22
2021/12/31 00:55:16;;;;;;;4.70;2.17;;;16.10;99.90;;;;;;4972059;28;20678;-23
2021/12/31 00:57:45;;;;;;;4.73;1.70;;;16.10;99.90;;;;;;4971142;28;20211;-22
2021/12/31 01:00:15;;;;;;;4.67;1.43;;;16.10;99.90;;;;;;4975053;28;20210;-22
2021/12/31 01:02:47;;;;;;;4.73;2.00;;;16.10;99.90;;;;;;4985012;28;20586;-23
2021/12/31 01:05:18;;;;;;;5.17;1.60;;;16.10;99.90;;;;;;4981376;28;20203;-22
2021/12/31 01:07:47;;;;;;;6.83;2.00;;;16.10;99.90;;;;;;4981353;28;20206;-22
2021/12/31 01:10:19;;;;;;;5.60;2.03;;;16.10;99.90;;;;;;4986714;28;20325;-22
2021/12/31 01:12:46;;;;;;;5.10;1.80;;;16.10;99.90;;;;;;4976326;28;20289;-22
2021/12/31 01:15:36;;;;;;;5.90;1.80;;;16.10;99.90;;;;;;4969888;28;20203;-22
2021/12/31 01:20:38;;;;;;;5.70;1.77;;;16.10;99.90;;;;;;4973929;28;20318;-22
2021/12/31 01:23:08;;;;;;;5.67;2.10;;;16.10;99.90;;;;;;4975155;28;20202;-22
2021/12/31 01:25:38;;;;;;;5.27;2.23;;;16.00;99.90;;;;;;4970500;28;20207;-22
2021/12/31 01:28:08;;;;;;;5.50;1.90;;;16.00;99.90;;;;;;4968816;28;20227;-22
2021/12/31 01:30:35;;;;;;;4.87;1.87;;;16.00;99.90;;;;;;4970815;28;20293;-22
2021/12/31 01:33:05;;;;;;;5.50;2.10;;;16.00;99.90;;;;;;4981465;28;20206;-22
2021/12/31 01:35:32;;;;;;;6.00;2.23;;;16.00;99.90;;;;;;4985971;28;20316;-22
2021/12/31 01:37:59;;;;;;;7.37;1.87;;;16.00;99.90;;;;;;4989513;28;20206;-22
2021/12/31 01:40:26;;;;;;;4.80;2.00;;;16.00;99.90;;;;;;4988455;28;20210;-22
2021/12/31 01:42:54;;;;;;;4.07;1.90;;;16.00;99.90;;;;;;4987179;28;20213;-22
2021/12/31 01:45:23;;;;;;;4.87;2.00;;;16.00;99.90;;;;;;4988686;28;20547;-22
2021/12/31 01:50:26;;;;;;;6.67;2.17;;;16.00;99.90;;;;;;4971173;28;20191;-24
2021/12/31 01:52:54;;;;;;;5.90;2.10;;;16.00;99.90;;;;;;4984887;28;20606;-24
2021/12/31 01:55:24;;;;;;;5.90;2.00;;;16.00;99.90;;;;;;4977075;28;20742;-24
2021/12/31 01:57:53;;;;;;;3.97;1.97;;;16.00;99.90;;;;;;4971483;28;20203;-24
2021/12/31 02:00:20;;;;;;;4.77;1.93;;;16.00;99.90;;;;;;4989712;28;20216;-24
2021/12/31 02:02:49;;;;;;;7.47;1.80;;;16.00;99.90;;;;;;4974975;28;20444;-24
2021/12/31 02:05:17;;;;;;;5.67;2.13;;;16.00;99.90;;;;;;4978996;28;20212;-24
2021/12/31 02:07:47;;;;;;;6.57;2.00;;;16.00;99.90;;;;;;4986644;28;20677;-24
2021/12/31 02:10:14;;;;;;;5.87;2.00;;;16.00;99.90;;;;;;4973389;28;20230;-24
2021/12/31 02:12:46;;;;;;;3.97;1.97;;;16.00;99.90;;;;;;4981790;28;20592;-24
2021/12/31 02:15:17;;;;;;;4.97;2.23;;;16.00;99.90;;;;;;4977647;28;20211;-24
2021/12/31 02:17:49;;;;;;;4.77;2.10;;;16.00;99.90;;;;;;4976043;28;20262;-24
2021/12/31 02:20:18;;;;;;;4.87;1.93;;;16.00;99.90;;;;;;4976002;28;20210;-24
2021/12/31 02:23:05;;;;;;;5.63;1.90;;;15.90;99.90;;;;;;4971030;28;20238;-24
2021/12/31 02:25:35;;;;;;;4.77;1.97;;;15.90;99.90;;;;;;4977947;28;20210;-24
2021/12/31 02:28:40;;;;;;;5.33;2.00;;;15.90;99.90;;;;;;4916629;29;20280;-24
2021/12/31 02:31:08;;;;;;;5.40;2.17;;;15.90;99.90;;;;;;4914176;29;20217;-24
2021/12/31 02:33:35;;;;;;;4.67;2.10;;;15.80;99.90;;;;;;4945573;28;20214;-24
2021/12/31 02:36:05;;;;;;;6.60;1.93;;;15.80;99.90;;;;;;4984698;28;20206;-24
2021/12/31 02:38:35;;;;;;;7.87;2.20;;;15.80;99.90;;;;;;4974922;28;20668;-24
2021/12/31 02:41:03;;;;;;;7.27;2.20;;;15.80;99.90;;;;;;4970370;28;20235;-24
2021/12/31 02:43:30;;;;;;;4.50;2.10;;;15.70;99.90;;;;;;4969272;28;20202;-24
2021/12/31 02:45:57;;;;;;;4.17;2.10;;;15.70;99.90;;;;;;4972040;28;20265;-24
2021/12/31 02:48:30;;;;;;;3.80;1.90;;;15.70;99.90;;;;;;4977212;28;20199;-24
2021/12/31 02:50:59;;;;;;;4.47;2.17;;;15.70;99.90;;;;;;4969280;28;20253;-24
2021/12/31 02:53:50;;;;;;;5.50;2.40;;;15.60;99.90;;;;;;4979036;28;20230;-24
2021/12/31 02:56:18;;;;;;;5.03;1.83;;;15.60;99.90;;;;;;4971510;28;20227;-24
2021/12/31 02:58:46;;;;;;;5.30;2.10;;;15.60;99.90;;;;;;4969735;28;20469;-24
2021/12/31 03:01:14;;;;;;;8.07;2.03;;;15.60;99.90;;;;;;4973824;28;20222;-24
2021/12/31 03:03:44;;;;;;;4.63;1.97;;;15.60;99.90;;;;;;4976363;28;20214;-24
2021/12/31 03:06:13;;;;;;;5.50;1.93;;;15.60;99.90;;;;;;4986049;28;20731;-24
2021/12/31 03:08:48;;;;;;;4.07;1.93;;;15.60;99.90;;;;;;4980406;28;20202;-24
2021/12/31 03:11:19;;;;;;;4.67;2.27;;;15.60;99.90;;;;;;4974179;28;20213;-24
2021/12/31 03:13:51;;;;;;;6.20;2.03;;;15.60;99.90;;;;;;4971899;28;20581;-24
2021/12/31 03:16:23;;;;;;;4.60;2.10;;;15.60;99.90;;;;;;4975276;28;20205;-24
2021/12/31 03:18:51;;;;;;;5.90;2.33;;;15.60;99.90;;;;;;4979002;28;20221;-24
2021/12/31 03:21:22;;;;;;;6.83;2.47;;;15.60;99.90;;;;;;4986497;28;20240;-24
2021/12/31 03:23:52;;;;;;;6.20;2.40;;;15.60;99.90;;;;;;4977046;28;20740;-24
2021/12/31 03:26:20;;;;;;;7.73;2.57;;;15.50;99.90;;;;;;4975278;28;20214;-24
2021/12/31 03:28:49;;;;;;;5.80;2.20;;;15.50;99.90;;;;;;4974232;28;20225;-24
2021/12/31 03:31:16;;;;;;;5.70;2.43;;;15.50;99.90;;;;;;4974252;28;20663;-22
2021/12/31 03:33:43;;;;;;;5.33;2.33;;;15.50;99.90;;;;;;4975709;28;20203;-22
2021/12/31 03:36:11;;;;;;;6.57;2.90;;;15.50;99.90;;;;;;4983462;28;20324;-22
2021/12/31 03:38:38;;;;;;;5.50;2.03;;;15.40;99.90;;;;;;4976897;28;20234;-22
2021/12/31 03:41:07;;;;;;;5.50;2.23;;;15.40;99.90;;;;;;4979359;28;20217;-22
2021/12/31 03:43:34;;;;;;;5.43;2.10;;;15.40;99.90;;;;;;4977539;28;20229;-23
2021/12/31 03:46:02;;;;;;;3.83;1.80;;;15.40;99.90;;;;;;4969452;28;20410;-22
2021/12/31 03:48:29;;;;;;;6.77;2.53;;;15.30;99.90;;;;;;4968584;28;20206;-22
2021/12/31 03:50:59;;;;;;;5.33;2.10;;;15.30;99.90;;;;;;4975571;28;20195;-22
2021/12/31 03:53:26;;;;;;;7.40;2.07;;;15.30;99.90;;;;;;4968626;28;20227;-23
2021/12/31 03:55:53;;;;;;;4.00;2.00;;;15.30;99.90;;;;;;4978219;28;20592;-23
2021/12/31 03:58:20;;;;;;;4.20;2.00;;;15.30;99.90;;;;;;4981881;28;20305;-22
2021/12/31 04:00:47;;;;;;;6.00;2.30;;;15.20;99.90;;;;;;4973480;28;20211;-22
2021/12/31 04:03:16;;;;;;;5.83;2.37;;;15.20;99.90;;;;;;4980106;28;20246;-22
2021/12/31 04:05:44;;;;;;;5.83;2.03;;;15.20;99.90;;;;;;4983414;28;20555;-22
2021/12/31 04:08:11;;;;;;;5.90;2.17;;;15.20;99.90;;;;;;4969256;28;20218;-23
2021/12/31 04:10:38;;;;;;;5.57;2.00;;;15.10;99.90;;;;;;4984020;28;20213;-22
2021/12/31 04:13:08;;;;;;;5.77;2.03;;;15.10;99.90;;;;;;4976603;28;20294;-22
2021/12/31 04:15:35;;;;;;;6.10;2.27;;;15.10;99.90;;;;;;4977035;28;20211;-22
2021/12/31 04:18:03;;;;;;;3.67;1.97;;;15.10;99.90;;;;;;4973193;28;20210;-22
2021/12/31 04:20:37;;;;;;;5.40;1.90;;;15.00;99.90;;;;;;4976724;28;20572;-22
2021/12/31 04:23:12;;;;;;;5.70;2.20;;;15.00;99.90;;;;;;4984417;28;20228;-22
2021/12/31 04:25:39;;;;;;;3.30;1.80;;;15.00;99.90;;;;;;4971743;28;20221;-22
2021/12/31 04:28:07;;;;;;;4.77;2.30;;;15.00;99.90;;;;;;4985876;28;20210;-24
2021/12/31 04:30:38;;;;;;;4.33;1.77;;;14.90;99.90;;;;;;4971084;28;20206;-24
2021/12/31 04:33:06;;;;;;;3.77;2.10;;;14.90;99.90;;;;;;4951053;28;20251;-24
2021/12/31 04:35:36;;;;;;;5.43;1.97;;;14.90;99.90;;;;;;4985888;28;20237;-24
2021/12/31 04:38:03;;;;;;;4.93;2.00;;;14.90;99.90;;;;;;4983888;28;20682;-24
2021/12/31 04:40:30;;;;;;;5.37;1.83;;;14.90;99.90;;;;;;4983501;28;20577;-24
2021/12/31 04:42:58;;;;;;;2.57;1.67;;;14.80;99.90;;;;;;4990690;28;20232;-24
2021/12/31 04:45:27;;;;;;;5.17;2.20;;;14.80;99.90;;;;;;4994176;28;20944;-24
2021/12/31 04:47:54;;;;;;;4.20;2.17;;;14.80;99.90;;;;;;4967238;28;20210;-24
2021/12/31 04:50:22;;;;;;;3.50;1.60;;;14.80;99.90;;;;;;4968474;28;20301;-24
2021/12/31 04:52:51;;;;;;;4.43;1.77;;;14.70;99.90;;;;;;4967773;28;20317;-24
2021/12/31 04:55:21;;;;;;;4.30;1.60;;;14.70;99.90;;;;;;4983001;28;20211;-24
2021/12/31 04:57:52;;;;;;;5.80;1.87;;;14.70;99.90;;;;;;4968846;28;20226;-24
2021/12/31 05:00:22;;;;;;;4.93;2.00;;;14.70;99.90;;;;;;4984744;28;20602;-24
2021/12/31 05:02:51;;;;;;;4.80;1.53;;;14.60;99.90;;;;;;4985947;28;20239;-25
2021/12/31 05:05:19;;;;;;;4.43;1.80;;;14.60;99.90;;;;;;4979661;28;20194;-30
2021/12/31 05:07:46;;;;;;;5.00;1.80;;;14.60;99.90;;;;;;4986258;28;20270;-24
2021/12/31 05:10:14;;;;;;;4.80;1.93;;;14.60;99.90;;;;;;4972527;28;20210;-24
2021/12/31 05:12:51;;;;;;;3.43;1.90;;;14.60;99.90;;;;;;4985268;28;20302;-24
2021/12/31 05:15:25;;;;;;;3.87;1.70;;;14.50;99.90;;;;;;4979225;28;20245;-24
2021/12/31 05:17:58;;;;;;;4.67;2.00;;;14.50;99.90;;;;;;4988440;28;20213;-24
2021/12/31 05:20:27;;;;;;;5.50;2.00;;;14.50;99.90;;;;;;4982801;28;20211;-24
2021/12/31 05:22:57;;;;;;;3.23;1.60;;;14.50;99.90;;;;;;4977005;28;20223;-24
2021/12/31 05:25:26;;;;;;;5.30;1.90;;;14.50;99.90;;;;;;4970920;28;20321;-24
2021/12/31 05:27:54;;;;;;;4.43;1.87;;;14.50;99.90;;;;;;4985973;28;20198;-24
2021/12/31 05:30:22;;;;;;;5.37;2.10;;;14.40;99.90;;;;;;4982778;28;20209;-24
2021/12/31 05:32:49;;;;;;;3.07;1.70;;;14.40;99.90;;;;;;4980913;28;20234;-24
2021/12/31 05:35:16;;;;;;;3.43;1.70;;;14.40;99.90;;;;;;4974074;28;20195;-24
2021/12/31 05:37:44;;;;;;;3.73;1.77;;;14.40;99.90;;;;;;4982668;28;20214;-24
2021/12/31 05:40:11;;;;;;;4.03;1.83;;;14.30;99.90;;;;;;4984833;28;20203;-24
2021/12/31 05:42:39;;;;;;;4.37;1.70;;;14.30;99.90;;;;;;4970326;28;20630;-24
2021/12/31 05:45:07;;;;;;;3.73;1.80;;;14.30;99.90;;;;;;4971634;28;20203;-24
2021/12/31 05:47:34;;;;;;;2.33;1.50;;;14.30;99.90;;;;;;4980354;28;20202;-24
2021/12/31 05:50:05;;;;;;;4.13;1.87;;;14.30;99.90;;;;;;4987853;28;20643;-24
2021/12/31 05:52:32;;;;;;;6.57;1.87;;;14.30;99.90;;;;;;4980610;28;20245;-24
2021/12/31 05:54:59;;;;;;;4.03;2.00;;;14.30;99.90;;;;;;4981431;28;20702;-24
2021/12/31 05:57:26;;;;;;;4.70;2.33;;;14.30;99.90;;;;;;4981788;28;20199;-24
2021/12/31 05:59:54;;;;;;;3.97;1.57;;;14.20;99.90;;;;;;4973553;28;20209;-24
2021/12/31 06:02:21;;;;;;;4.70;1.77;;;14.20;99.90;;;;;;4989331;28;20657;-22
2021/12/31 06:04:48;;;;;;;2.67;1.47;;;14.30;99.90;;;;;;4987677;28;20207;-22
2021/12/31 06:07:17;;;;;;;3.70;1.60;;;14.20;99.90;;;;;;4988140;28;20226;-22
2021/12/31 06:10:05;;;;;;;2.90;1.70;;;14.20;99.90;;;;;;4987836;28;20197;-22
2021/12/31 06:13:10;;;;;;;4.77;1.37;;;14.20;99.90;;;;;;4939151;29;20218;-22
2021/12/31 06:15:59;;;;;;;4.83;1.80;;;14.20;99.90;;;;;;4964266;28;20579;-22
2021/12/31 06:18:27;;;;;;;3.37;1.60;;;14.20;99.90;;;;;;4989524;28;20260;-22
2021/12/31 06:20:55;;;;;;;4.60;1.50;;;14.10;99.90;;;;;;4984947;28;20207;-22
2021/12/31 06:23:25;;;;;;;4.30;1.67;;;14.10;99.90;;;;;;4983943;28;20214;-23
2021/12/31 06:25:52;;;;;;;3.80;1.57;;;14.10;99.90;;;;;;4985719;28;20928;-22
2021/12/31 06:28:19;;;;;;;2.87;1.50;;;14.10;99.90;;;;;;4986873;28;20663;-22
2021/12/31 06:30:48;;;;;;;4.13;1.70;;;14.10;99.90;;;;;;4980378;28;20573;-22
2021/12/31 06:33:15;;;;;;;3.50;1.67;;;14.10;99.90;;;;;;4987433;28;20320;-22
2021/12/31 06:35:43;;;;;;;3.50;1.73;;;14.10;99.90;;;;;;4984276;28;20268;-22
2021/12/31 06:38:11;;;;;;;3.27;1.50;;;14.10;99.90;;;;;;4988954;28;20234;-23
2021/12/31 06:40:39;;;;;;;3.93;1.60;;;14.10;99.90;;;;;;4985837;28;20281;-23
2021/12/31 06:43:06;;;;;;;2.60;1.33;;;14.10;99.90;;;;;;4982328;28;20241;-22
2021/12/31 06:45:33;;;;;;;2.63;1.30;;;14.10;99.90;;;;;;4975005;28;20207;-22
2021/12/31 06:48:04;;;;;;;3.50;1.50;;;14.10;99.90;;;;;;4969856;28;20601;-22
2021/12/31 06:50:31;;;;;;;3.37;1.50;;;14.10;99.90;;;;;;4969213;28;20218;-23
2021/12/31 06:53:01;;;;;;;3.53;1.33;;;14.10;99.90;;;;;;4974625;28;20266;-22
2021/12/31 06:55:30;;;;;;;3.47;1.50;;;14.10;99.90;;;;;;4980423;28;20658;-22
2021/12/31 06:57:58;;;;;;;2.80;1.50;;;14.00;99.90;;;;;;4973253;28;20218;-22
2021/12/31 07:00:25;;;;;;;4.03;1.90;;;14.00;99.90;;;;;;4973752;28;20624;-22
2021/12/31 07:03:12;;;;;;;3.57;1.63;;;14.00;99.90;;;;;;4970533;28;20233;-22
2021/12/31 07:05:43;;;;;;;3.13;1.57;;;14.00;99.90;;;;;;4971719;28;20194;-22
2021/12/31 07:08:13;;;;;;;4.60;1.40;;;14.00;99.90;;;;;;4973509;28;20662;-22
2021/12/31 07:10:45;;;;;;;2.73;1.67;;;14.00;99.90;;;;;;4975889;28;20689;-23
2021/12/31 07:13:15;;;;;;;3.47;1.57;;;14.00;99.90;;;;;;4976431;28;20211;-23
2021/12/31 07:15:45;;;;;;;4.33;1.50;;;14.00;99.90;;;;;;4975611;28;20425;-22
2021/12/31 07:18:12;;;;;;;4.20;1.80;;;14.00;99.90;;;;;;4972123;28;20247;-22
2021/12/31 07:20:42;;;;;;;4.20;1.93;;;14.00;99.90;;;;;;4981199;28;20207;-23
2021/12/31 07:23:16;;;;;;;2.23;1.43;;;14.00;99.90;;;;;;4991324;28;20354;-22
2021/12/31 07:25:43;;;;;;;2.57;1.80;;;14.00;99.90;;;;;;4989621;28;20202;-22
2021/12/31 07:28:12;;;;;;;3.87;1.60;;;14.00;99.90;;;;;;4968181;28;20560;-23
2021/12/31 07:30:43;;;;;;;3.27;1.33;;;14.00;99.90;;;;;;4972214;28;20662;-23
2021/12/31 07:33:21;;;;;;;3.77;1.60;;;14.00;99.90;;;;;;4969096;28;20207;-23
2021/12/31 07:35:55;;;;;;;4.47;1.43;;;14.00;99.90;;;;;;4978262;28;20305;-23
2021/12/31 07:38:32;;;;;;;3.63;1.40;;;14.00;99.90;;;;;;4980439;28;20202;-22
2021/12/31 07:40:59;;;;;;;3.33;1.70;;;13.90;99.90;;;;;;4974859;28;20692;-22
2021/12/31 07:43:27;;;;;;;4.73;1.50;;;13.90;99.90;;;;;;4981294;28;20215;-22
2021/12/31 07:45:54;;;;;;;5.73;1.87;;;13.90;99.90;;;;;;4971948;28;20211;-22
2021/12/31 07:48:22;;;;;;;3.53;1.40;;;13.90;99.90;;;;;;4974782;28;20281;-22
2021/12/31 07:50:50;;;;;;;3.37;1.57;;;13.90;99.90;;;;;;4972361;28;20202;-22
2021/12/31 07:53:18;;;;;;;3.73;1.50;;;13.90;99.90;;;;;;4968320;28;20746;-22
2021/12/31 07:55:45;;;;;;;3.60;1.63;;;13.90;99.90;;;;;;4980228;28;20219;-22
2021/12/31 07:58:13;;;;;;;2.27;1.37;;;13.90;99.90;;;;;;4970529;28;20211;-22
2021/12/31 08:00:40;;;;;;;2.50;1.30;;;13.90;99.90;;;;;;4969938;28;20220;-22
2021/12/31 08:03:07;;;;;;;3.60;1.27;;;13.90;99.90;;;;;;4977488;28;20222;-22
2021/12/31 08:05:35;;;;;;;2.87;1.43;;;13.80;99.90;;;;;;4975805;28;20716;-22
2021/12/31 08:08:04;;;;;;;3.10;1.47;;;13.90;99.90;;;;;;4982326;28;20198;-22
2021/12/31 08:10:33;;;;;;;2.40;1.40;;;13.90;99.90;;;;;;4974860;28;20233;-22
2021/12/31 08:13:21;;;;;;;2.53;1.50;;;13.90;99.90;;;;;;4980302;28;20217;-22
2021/12/31 08:15:48;;;;;;;3.87;1.67;;;13.90;99.90;;;;;;4983376;28;20335;-22
2021/12/31 08:18:15;;;;;;;1.83;1.30;;;13.90;99.90;;;;;;4975021;28;20194;-23
2021/12/31 08:20:43;;;;;;;2.20;1.30;;;13.90;99.90;;;;;;4983865;28;20245;-22
2021/12/31 08:23:12;;;;;;;2.00;1.40;;;13.90;99.90;;;;;;4977192;28;20261;-22
2021/12/31 08:25:42;;;;;;;1.80;1.30;;;13.90;99.90;;;;;;4975971;28;20214;-22
2021/12/31 08:28:13;;;;;;;1.83;1.13;;;13.90;99.90;;;;;;4973311;28;20710;-22
2021/12/31 08:30:40;;;;;;;2.83;1.20;;;13.90;99.90;;;;;;4968923;28;20301;-22
2021/12/31 08:33:08;;;;;;;2.17;1.30;;;13.90;99.90;;;;;;4986613;28;20257;-22
2021/12/31 08:35:39;;;;;;;2.53;1.20;;;14.00;99.90;;;;;;4992033;28;20210;-22
2021/12/31 08:38:07;;;;;;;1.57;1.20;;;14.00;99.90;;;;;;4990537;28;20217;-24
2021/12/31 08:40:34;;;;;;;2.30;1.20;;;14.00;99.90;;;;;;4981418;28;20214;-24
2021/12/31 08:43:03;;;;;;;3.10;1.20;;;14.00;99.90;;;;;;4972535;28;20300;-24
2021/12/31 08:45:32;;;;;;;2.53;1.20;;;14.00;99.90;;;;;;4972439;28;20209;-24
2021/12/31 08:48:03;;;;;;;2.10;1.30;;;14.10;99.90;;;;;;4980859;28;20219;-24
2021/12/31 08:50:31;;;;;;;4.30;1.50;;;14.00;99.90;;;;;;4971686;28;20206;-24
2021/12/31 08:52:59;;;;;;;2.37;1.23;;;14.10;99.90;;;;;;4976607;28;20292;-24
2021/12/31 08:55:26;;;;;;;2.07;1.10;;;14.10;99.90;;;;;;4989737;28;20223;-24
2021/12/31 08:57:53;;;;;;;2.70;1.60;;;14.20;99.90;;;;;;4985664;28;20253;-24
2021/12/31 09:00:21;;;;;;;2.40;1.70;;;14.20;99.90;;;;;;4972186;28;20214;-24
2021/12/31 09:02:50;;;;;;;2.80;1.10;;;14.20;99.90;;;;;;4983236;28;20312;-24
2021/12/31 09:05:22;;;;;;;2.30;1.27;;;14.20;99.90;;;;;;4980003;28;20207;-24
2021/12/31 09:07:50;;;;;;;4.10;1.30;;;14.30;99.90;;;;;;4991075;28;20199;-24
2021/12/31 09:10:19;;;;;;;2.10;1.30;;;14.30;99.90;;;;;;4973504;28;20202;-24
2021/12/31 09:12:50;;;;;;;2.07;1.30;;;14.30;99.90;;;;;;4980385;28;20217;-24
2021/12/31 09:15:20;;;;;;;2.03;1.10;;;14.30;99.90;;;;;;4982315;28;20205;-24
2021/12/31 09:17:48;;;;;;;2.77;1.20;;;14.40;99.90;;;;;;4971837;28;20218;-24
2021/12/31 09:20:18;;;;;;;2.63;1.13;;;14.40;99.90;;;;;;4977725;28;20215;-24
2021/12/31 09:22:45;;;;;;;2.87;1.37;;;14.40;99.90;;;;;;4972208;28;20278;-24
2021/12/31 09:25:14;;;;;;;3.23;1.40;;;14.40;99.90;;;;;;4972032;28;20611;-28
2021/12/31 09:27:44;;;;;;;2.00;1.10;;;14.50;99.90;;;;;;4990182;28;20975;-24
2021/12/31 09:30:16;;;;;;;2.30;1.53;;;14.50;99.90;;;;;;4986938;28;20286;-24
2021/12/31 09:32:44;;;;;;;2.50;1.23;;;14.50;99.90;;;;;;4971074;28;20203;-24
2021/12/31 09:35:13;;;;;;;1.47;1.30;;;14.50;99.90;;;;;;4971344;28;20203;-24
2021/12/31 09:37:41;;;;;;;2.30;1.10;;;14.60;99.90;;;;;;4972482;28;20219;-24
2021/12/31 09:40:09;;;;;;;1.30;1.20;;;14.60;99.90;;;;;;4970860;28;20636;-24
2021/12/31 09:42:36;;;;;;;2.13;1.50;;;14.70;99.90;;;;;;4970557;28;20709;-24
2021/12/31 09:45:04;;;;;;;3.20;1.30;;;14.70;99.90;;;;;;4970033;28;20199;-24
2021/12/31 09:47:33;;;;;;;2.53;1.27;;;14.70;99.90;;;;;;4988079;28;20755;-24
2021/12/31 09:50:01;;;;;;;2.10;1.30;;;14.70;99.90;;;;;;4986503;28;20198;-24
2021/12/31 09:52:31;;;;;;;4.10;1.73;;;14.80;99.90;;;;;;4977128;28;20230;-25
2021/12/31 09:54:59;;;;;;;3.00;1.50;;;14.80;99.90;;;;;;4970089;28;20210;-25
2021/12/31 09:57:27;;;;;;;2.53;1.50;;;14.80;99.90;;;;;;4973451;28;20201;-26
2021/12/31 10:00:00;;;;;;;1.20;1.10;;;14.80;99.90;;;;;;4987774;28;20198;-25
2021/12/31 10:02:34;;;;;;;2.23;1.63;;;14.80;99.90;;;;;;4978385;28;20221;-25
2021/12/31 10:05:03;;;;;;;2.47;1.50;;;14.80;99.90;;;;;;4974984;28;20689;-26
2021/12/31 10:07:30;;;;;;;3.17;1.43;;;14.80;99.90;;;;;;4971366;28;20199;-23
2021/12/31 10:10:13;;;;;;;2.47;1.40;;;14.90;99.90;;;;;;4982687;28;20273;-24
2021/12/31 10:12:47;;;;;;;2.93;1.40;;;14.90;99.90;;;;;;4989425;28;20217;-24
2021/12/31 10:15:17;;;;;;;2.13;1.33;;;14.90;99.90;;;;;;4972036;28;20190;-24
2021/12/31 10:17:45;;;;;;;3.37;1.50;;;14.90;99.90;;;;;;4980033;28;20201;-23
2021/12/31 10:20:13;;;;;;;1.40;1.10;;;14.90;99.90;;;;;;4985257;28;20215;-25
2021/12/31 10:22:46;;;;;;;2.20;1.40;;;15.00;99.90;;;;;;4968697;28;20257;-26
2021/12/31 10:25:23;;;;;;;3.83;1.30;;;15.00;99.90;;;;;;4969826;28;20490;-25
2021/12/31 10:28:06;;;;;;;2.93;1.30;;;15.00;99.90;;;;;;4971525;28;20672;-25
2021/12/31 10:30:37;;;;;;;5.03;2.07;;;15.00;99.90;;;;;;4978374;28;20222;-25
2021/12/31 10:33:07;;;;;;;3.07;1.90;;;15.10;99.90;;;;;;4982422;28;20643;-26
2021/12/31 10:35:42;;;;;;;3.47;1.43;;;15.10;99.90;;;;;;4997614;28;20206;-25
2021/12/31 10:38:12;;;;;;;4.20;1.33;;;15.20;99.90;;;;;;4975271;28;20214;-26
2021/12/31 10:40:45;;;;;;;3.77;1.50;;;15.20;99.90;;;;;;4970085;28;20209;-26
2021/12/31 10:43:25;;;;;;;2.80;1.47;;;15.20;99.90;;;;;;4972767;28;20333;-25
2021/12/31 10:46:07;;;;;;;2.17;1.50;;;15.30;99.90;;;;;;4989175;28;20300;-25
2021/12/31 10:48:43;;;;;;;3.43;1.53;;;15.30;99.90;;;;;;4984890;28;20699;-26
2021/12/31 10:51:17;;;;;;;1.97;1.27;;;15.30;99.90;;;;;;4972911;28;20207;-25
2021/12/31 10:53:54;;;;;;;2.87;1.87;;;15.40;99.90;;;;;;4975854;28;20215;-25
2021/12/31 10:56:39;;;;;;;1.70;1.20;;;15.40;99.90;;;;;;4985496;28;20214;-26
2021/12/31 10:59:06;;;;;;;2.87;1.40;;;15.50;99.90;;;;;;4969667;28;20203;-26
2021/12/31 11:01:34;;;;;;;3.00;1.17;;;15.60;99.90;;;;;;4982204;28;20218;-26
2021/12/31 11:04:02;;;;;;;2.53;1.23;;;15.60;99.90;;;;;;4986390;28;20253;-26
2021/12/31 11:06:31;;;;;;;2.13;1.30;;;15.60;99.90;;;;;;4970103;28;20206;-26
2021/12/31 11:09:05;;;;;;;4.03;1.53;;;15.70;99.90;;;;;;4970888;28;20191;-25
2021/12/31 11:11:34;;;;;;;2.87;1.60;;;15.70;99.90;;;;;;4979009;28;20199;-26
2021/12/31 11:14:02;;;;;;;3.20;1.40;;;15.70;99.90;;;;;;4969798;28;20661;-25
2021/12/31 11:16:29;;;;;;;2.53;1.43;;;15.80;99.90;;;;;;4968685;28;20203;-23
2021/12/31 11:18:57;;;;;;;3.50;1.27;;;15.80;99.90;;;;;;4972636;28;20207;-24
2021/12/31 11:21:28;;;;;;;1.90;1.20;;;15.80;99.90;;;;;;4969174;28;20237;-24
2021/12/31 11:24:15;;;;;;;1.90;1.03;;;15.90;99.90;;;;;;4974946;28;20264;-24
2021/12/31 11:26:43;;;;;;;5.13;1.40;;;16.00;99.90;;;;;;4970062;28;20204;-24
2021/12/31 11:29:15;;;;;;;2.93;1.17;;;16.00;99.90;;;;;;4967534;28;20204;-23
2021/12/31 11:31:44;;;;;;;3.17;1.20;;;16.10;99.90;;;;;;4970171;28;20311;-23
2021/12/31 11:34:13;;;;;;;2.07;1.20;;;16.10;99.90;;;;;;4968573;28;20207;-24
2021/12/31 11:36:52;;;;;;;1.63;1.30;;;16.10;99.90;;;;;;4969955;28;20216;-23
2021/12/31 11:39:29;;;;;;;1.63;1.23;;;16.10;99.90;;;;;;4954743;28;20214;-24
2021/12/31 11:41:59;;;;;;;2.33;1.43;;;16.20;99.90;;;;;;4978223;28;20198;-24
2021/12/31 11:44:27;;;;;;;2.67;1.30;;;16.20;99.90;;;;;;4974005;28;20234;-24
2021/12/31 11:47:17;;;;;;;4.57;1.40;;;16.20;99.90;;;;;;4966841;28;20206;-24
2021/12/31 11:49:47;;;;;;;3.37;1.67;;;16.20;99.90;;;;;;4971726;28;20198;-24
2021/12/31 11:52:23;;;;;;;1.83;1.20;;;16.20;99.90;;;;;;4974538;28;20230;-23
2021/12/31 11:55:16;;;;;;;1.97;1.40;;;16.20;99.90;;;;;;4968110;28;20210;-24
2021/12/31 11:57:43;;;;;;;2.83;1.40;;;16.30;99.90;;;;;;4967130;28;20243;-23
2021/12/31 12:00:31;;;;;;;3.77;1.50;;;16.30;99.90;;;;;;4982444;28;20708;-24
2021/12/31 12:02:59;;;;;;;2.43;1.33;;;16.30;99.90;;;;;;4973739;28;20202;-23
2021/12/31 12:05:41;;;;;;;2.77;1.60;;;16.30;99.90;;;;;;4976428;28;20206;-24
2021/12/31 12:08:26;;;;;;;3.63;1.50;;;16.30;99.90;;;;;;4972192;28;20732;-23
2021/12/31 12:10:54;;;;;;;1.60;1.30;;;16.30;99.90;;;;;;4973289;28;20317;-23
2021/12/31 12:13:26;;;;;;;2.57;1.47;;;16.30;99.90;;;;;;4985850;28;20195;-23
2021/12/31 12:15:56;;;;;;;2.90;1.37;;;16.40;99.90;;;;;;4986164;28;20580;-24
2021/12/31 12:18:55;;;;;;;2.70;1.40;;;16.40;99.90;;;;;;4972373;28;20289;-24
2021/12/31 12:21:33;;;;;;;4.33;1.97;;;16.40;99.90;;;;;;4979851;28;20650;-24
2021/12/31 12:24:00;;;;;;;2.73;1.30;;;16.40;99.90;;;;;;4971682;28;20227;-24
2021/12/31 12:26:30;;;;;;;4.20;1.63;;;16.40;99.90;;;;;;4972041;28;20581;-24
2021/12/31 12:28:58;;;;;;;8.20;1.60;;;16.40;99.90;;;;;;4977146;28;20578;-24
2021/12/31 12:31:25;;;;;;;3.80;1.50;;;16.40;99.90;;;;;;4991856;28;20657;-26
2021/12/31 12:33:58;;;;;;;2.87;1.60;;;16.40;99.90;;;;;;4976988;28;20590;-26
2021/12/31 12:36:26;;;;;;;2.20;1.40;;;16.40;99.90;;;;;;4971890;28;20588;-25
2021/12/31 12:39:06;;;;;;;4.10;1.80;;;16.40;99.90;;;;;;4972404;28;20218;-23
2021/12/31 12:41:35;;;;;;;3.03;1.47;;;16.40;99.90;;;;;;4974554;28;20300;-26
2021/12/31 12:44:07;;;;;;;2.13;1.60;;;16.40;99.90;;;;;;4985702;28;20259;-25
2021/12/31 12:46:36;;;;;;;3.50;1.60;;;16.40;99.90;;;;;;4990855;28;20289;-25
2021/12/31 12:49:11;;;;;;;3.23;1.73;;;16.40;99.90;;;;;;4971254;28;20301;-25
2021/12/31 12:51:42;;;;;;;3.37;1.57;;;16.40;99.90;;;;;;4970167;28;20687;-25
2021/12/31 12:54:17;;;;;;;5.43;1.93;;;16.40;99.90;;;;;;4971622;28;20760;-25
2021/12/31 12:56:44;;;;;;;3.03;1.70;;;16.40;99.90;;;;;;4999383;28;20214;-25
2021/12/31 12:59:21;;;;;;;2.73;1.70;;;16.40;99.90;;;;;;4978130;28;20216;-25
2021/12/31 13:01:49;;;;;;;3.43;1.63;;;16.40;99.90;;;;;;4973575;28;20223;-24
2021/12/31 13:04:18;;;;;;;3.53;1.60;;;16.40;99.90;;;;;;4994421;28;20277;-24
2021/12/31 13:07:00;;;;;;;3.33;1.80;;;16.40;99.90;;;;;;4988813;28;20206;-24
2021/12/31 13:09:32;;;;;;;3.50;1.90;;;16.50;99.90;;;;;;4963557;28;20219;-22